createdAt,value
2022-12-12T00:01:55.423Z,95588.75
2022-12-12T00:04:23.981Z,95595.91
2022-12-12T00:06:54.169Z,95591.34
2022-12-12T00:09:22.563Z,95598.50
2022-12-12T00:11:51.958Z,95599.16
2022-12-12T00:14:20.828Z,95592.00
2022-12-12T00:16:49.274Z,95597.31
2022-12-12T00:19:18.434Z,95591.34
2022-12-12T00:21:46.870Z,95593.84
2022-12-12T00:24:17.702Z,95592.63
2022-12-12T00:26:46.100Z,95589.34
2022-12-12T00:29:15.470Z,95595.03
2022-12-12T00:31:44.330Z,95592.94
2022-12-12T00:34:13.440Z,95598.28
2022-12-12T00:36:42.456Z,95603.31
2022-12-12T00:39:16.678Z,95611.00
2022-12-12T00:41:48.705Z,95603.03
2022-12-12T00:44:17.516Z,95608.56
2022-12-12T00:46:46.033Z,95607.16
2022-12-12T00:49:14.620Z,95617.16
2022-12-12T00:51:45.118Z,95613.31
2022-12-12T00:54:13.871Z,95614.13
2022-12-12T00:56:42.624Z,95614.31
2022-12-12T00:59:12.953Z,95619.44
2022-12-12T01:01:41.581Z,95616.97
2022-12-12T01:04:10.044Z,95615.97
2022-12-12T01:06:39.516Z,95604.25
2022-12-12T01:09:08.409Z,95614.50
2022-12-12T01:11:36.980Z,95624.31
2022-12-12T01:14:06.050Z,95618.72
2022-12-12T01:16:36.397Z,95615.44
2022-12-12T01:19:04.941Z,95618.47
2022-12-12T01:21:33.959Z,95618.00
2022-12-12T01:24:02.492Z,95613.72
2022-12-12T01:26:31.469Z,95618.59
2022-12-12T01:29:00.322Z,95628.19
2022-12-12T01:31:29.291Z,95617.84
2022-12-12T01:33:59.782Z,95626.28
2022-12-12T01:36:28.230Z,95633.88
2022-12-12T01:38:57.478Z,95627.94
2022-12-12T01:41:26.664Z,95634.06
2022-12-12T01:43:55.401Z,95629.28
2022-12-12T01:46:35.634Z,95631.41
2022-12-12T01:49:14.292Z,95625.47
2022-12-12T01:51:44.703Z,95628.47
2022-12-12T01:54:18.046Z,95635.81
2022-12-12T01:56:49.071Z,95628.84
2022-12-12T01:59:20.717Z,95629.69
2022-12-12T02:01:50.706Z,95629.47
2022-12-12T02:04:22.821Z,95642.56
2022-12-12T02:06:53.206Z,95631.31
2022-12-12T02:09:25.130Z,95625.38
2022-12-12T02:11:56.005Z,95641.84
2022-12-12T02:14:28.291Z,95641.41
2022-12-12T02:17:13.912Z,95643.25
2022-12-12T02:20:27.298Z,95650.56
2022-12-12T02:23:39.689Z,95648.28
2022-12-12T02:26:26.447Z,95655.63
2022-12-12T02:29:20.635Z,95647.38
2022-12-12T02:31:56.851Z,95649.00
2022-12-12T02:34:34.447Z,95638.09
2022-12-12T02:37:09.769Z,95653.50
2022-12-12T02:39:48.929Z,95654.94
2022-12-12T02:42:27.421Z,95655.63
2022-12-12T02:45:01.134Z,95621.25
2022-12-12T02:47:33.827Z,95658.09
2022-12-12T02:50:06.935Z,95660.34
2022-12-12T02:52:35.761Z,95656.34
2022-12-12T02:55:04.947Z,95654.50
2022-12-12T02:57:33.960Z,95658.16
2022-12-12T03:00:06.856Z,95651.41
2022-12-12T03:03:17.511Z,95661.84
2022-12-12T03:06:17.330Z,95650.84
2022-12-12T03:08:59.858Z,95661.28
2022-12-12T03:11:39.712Z,95651.84
2022-12-12T03:14:14.299Z,95655.72
2022-12-12T03:16:49.075Z,95654.22
2022-12-12T03:19:26.611Z,95653.06
2022-12-12T03:22:01.796Z,95652.03
2022-12-12T03:24:37.539Z,95656.88
2022-12-12T03:27:11.851Z,95656.53
2022-12-12T03:29:45.478Z,95652.38
2022-12-12T03:32:18.990Z,95650.41
2022-12-12T03:34:57.031Z,95655.97
2022-12-12T03:37:29.786Z,95658.63
2022-12-12T03:40:03.244Z,95656.78
2022-12-12T03:42:38.269Z,95656.78
2022-12-12T03:45:12.868Z,95658.00
2022-12-12T03:47:48.455Z,95655.53
2022-12-12T03:50:22.049Z,95665.50
2022-12-12T03:52:56.139Z,95663.28
2022-12-12T03:55:28.757Z,95665.56
2022-12-12T03:58:01.669Z,95660.44
2022-12-12T04:00:37.841Z,95664.94
2022-12-12T04:03:12.406Z,95666.78
2022-12-12T04:06:02.065Z,95658.19
2022-12-12T04:08:31.763Z,95669.53
2022-12-12T04:11:24.636Z,95673.00
2022-12-12T04:14:04.351Z,95674.66
2022-12-12T04:16:37.249Z,95664.31
2022-12-12T04:19:13.303Z,95673.38
2022-12-12T04:22:06.649Z,95672.91
2022-12-12T04:24:44.696Z,95665.94
2022-12-12T04:27:22.006Z,95669.03
2022-12-12T04:29:59.152Z,95671.06
2022-12-12T04:32:34.406Z,95670.97
2022-12-12T04:35:08.881Z,95675.94
2022-12-12T04:37:44.232Z,95676.56
2022-12-12T04:40:15.394Z,95678.84
2022-12-12T04:42:47.837Z,95679.50
2022-12-12T04:45:20.266Z,95690.22
2022-12-12T04:47:53.471Z,95683.09
2022-12-12T04:50:24.959Z,95690.69
2022-12-12T04:52:57.839Z,95686.81
2022-12-12T04:55:31.514Z,95689.66
2022-12-12T04:58:00.585Z,95683.53
2022-12-12T05:00:35.983Z,95668.50
2022-12-12T05:03:11.879Z,95685.66
2022-12-12T05:05:44.371Z,95694.25
2022-12-12T05:08:20.948Z,95694.25
2022-12-12T05:10:53.747Z,95690.97
2022-12-12T05:13:25.022Z,95689.47
2022-12-12T05:15:57.207Z,95691.50
2022-12-12T05:18:25.612Z,95686.81
2022-12-12T05:20:55.400Z,95686.81
2022-12-12T05:23:27.895Z,95692.97
2022-12-12T05:25:59.488Z,95692.31
2022-12-12T05:28:28.265Z,95697.63
2022-12-12T05:30:56.674Z,95690.22
2022-12-12T05:33:25.503Z,95699.13
2022-12-12T05:35:53.959Z,95705.06
2022-12-12T05:38:22.814Z,95702.03
2022-12-12T05:40:53.257Z,95704.53
2022-12-12T05:43:22.480Z,95702.84
2022-12-12T05:45:51.309Z,95704.53
2022-12-12T05:48:24.294Z,95710.81
2022-12-12T05:50:53.769Z,95710.19
2022-12-12T05:53:22.792Z,95712.66
2022-12-12T05:55:53.878Z,95715.50
2022-12-12T05:58:22.318Z,95720.81
2022-12-12T06:00:51.840Z,95709.91
2022-12-12T06:03:20.976Z,95716.22
2022-12-12T06:05:49.734Z,95722.19
2022-12-12T06:08:22.221Z,95716.50
2022-12-12T06:10:55.541Z,95724.47
2022-12-12T06:13:24.406Z,95724.47
2022-12-12T06:15:53.406Z,95714.88
2022-12-12T06:18:21.858Z,95718.97
2022-12-12T06:20:50.777Z,95728.78
2022-12-12T06:23:20.030Z,95727.31
2022-12-12T06:25:51.667Z,95728.59
2022-12-12T06:28:21.505Z,95723.47
2022-12-12T06:30:50.342Z,95736.56
2022-12-12T06:33:18.794Z,95732.44
2022-12-12T06:35:47.775Z,95736.75
2022-12-12T06:38:16.187Z,95741.25
2022-12-12T06:40:45.294Z,95742.06
2022-12-12T06:43:14.070Z,95737.38
2022-12-12T06:45:43.804Z,95733.81
2022-12-12T06:48:12.842Z,95739.78
2022-12-12T06:50:41.649Z,95730.41
2022-12-12T06:53:11.229Z,95755.72
2022-12-12T06:55:42.803Z,95764.03
2022-12-12T06:58:12.429Z,95756.25
2022-12-12T07:00:41.446Z,95757.91
2022-12-12T07:03:13.623Z,95756.63
2022-12-12T07:05:42.102Z,95758.63
2022-12-12T07:08:11.012Z,95765.94
2022-12-12T07:10:39.417Z,95769.25
2022-12-12T07:13:08.414Z,95768.59
2022-12-12T07:15:43.206Z,95769.63
2022-12-12T07:18:13.750Z,95771.16
2022-12-12T07:20:42.944Z,95770.88
2022-12-12T07:23:11.910Z,95778.13
2022-12-12T07:25:41.363Z,95776.19
2022-12-12T07:28:11.359Z,95786.09
2022-12-12T07:30:41.549Z,95793.03
2022-12-12T07:33:10.790Z,95790.38
2022-12-12T07:35:42.218Z,95797.72
2022-12-12T07:38:12.077Z,95796.88
2022-12-12T07:40:41.176Z,95791.56
2022-12-12T07:43:09.836Z,95794.72
2022-12-12T07:45:38.471Z,95795.69
2022-12-12T07:48:07.279Z,95793.34
2022-12-12T07:50:36.426Z,95791.88
2022-12-12T07:53:06.661Z,95790.16
2022-12-12T07:55:36.528Z,95790.69
2022-12-12T07:58:05.631Z,95802.94
2022-12-12T08:00:34.802Z,95805.59
2022-12-12T08:03:04.009Z,95801.84
2022-12-12T08:05:32.687Z,95797.25
2022-12-12T08:08:01.575Z,95812.09
2022-12-12T08:10:31.740Z,95817.72
2022-12-12T08:13:00.385Z,95820.19
2022-12-12T08:15:29.431Z,95828.97
2022-12-12T08:17:58.174Z,95831.06
2022-12-12T08:20:26.868Z,95836.72
2022-12-12T08:22:55.990Z,95834.06
2022-12-12T08:25:24.831Z,95834.38
2022-12-12T08:27:55.207Z,95828.13
2022-12-12T08:30:23.759Z,95837.84
2022-12-12T08:32:52.319Z,95841.13
2022-12-12T08:35:20.925Z,95848.28
2022-12-12T08:37:49.531Z,95835.47
2022-12-12T08:40:18.818Z,95848.22
2022-12-12T08:42:47.283Z,95854.22
2022-12-12T08:45:17.367Z,95853.38
2022-12-12T08:47:45.760Z,95847.06
2022-12-12T08:50:14.138Z,95850.06
2022-12-12T08:52:42.526Z,95852.53
2022-12-12T08:55:11.446Z,95850.38
2022-12-12T08:57:40.377Z,95855.50
2022-12-12T09:00:10.753Z,95856.91
2022-12-12T09:02:40.708Z,95852.22
2022-12-12T09:05:09.867Z,95855.72
2022-12-12T09:07:38.216Z,95855.44
2022-12-12T09:10:07.617Z,95845.91
2022-12-12T09:12:41.453Z,95872.88
2022-12-12T09:15:11.509Z,95862.69
2022-12-12T09:17:41.957Z,95867.25
2022-12-12T09:20:11.220Z,95875.22
2022-12-12T09:22:39.854Z,95872.50
2022-12-12T09:25:08.882Z,95874.25
2022-12-12T09:27:37.878Z,95879.09
2022-12-12T09:30:07.475Z,95873.19
2022-12-12T09:32:36.178Z,95878.31
2022-12-12T09:35:06.833Z,95873.69
2022-12-12T09:37:35.494Z,95876.28
2022-12-12T09:40:04.518Z,95880.91
2022-12-12T09:42:36.394Z,95881.19
2022-12-12T09:45:07.605Z,95878.69
2022-12-12T09:47:40.563Z,95883.47
2022-12-12T09:50:18.001Z,95888.00
2022-12-12T09:52:47.336Z,95889.28
2022-12-12T09:55:28.465Z,95879.13
2022-12-12T09:58:00.505Z,95887.66
2022-12-12T10:00:33.177Z,95888.78
2022-12-12T10:03:19.214Z,95887.28
2022-12-12T10:06:13.824Z,95881.03
2022-12-12T10:09:00.470Z,95887.28
2022-12-12T10:11:54.401Z,95886.53
2022-12-12T10:14:30.182Z,95892.63
2022-12-12T10:16:59.896Z,95896.03
2022-12-12T10:19:31.431Z,95876.84
2022-12-12T10:22:07.193Z,95880.47
2022-12-12T10:24:41.209Z,95879.50
2022-12-12T10:27:11.901Z,95880.63
2022-12-12T10:29:45.490Z,95883.84
2022-12-12T10:32:27.644Z,95892.19
2022-12-12T10:35:12.972Z,95890.81
2022-12-12T10:37:58.037Z,95865.34
2022-12-12T10:40:42.722Z,95886.19
2022-12-12T10:43:18.544Z,95890.75
2022-12-12T10:45:56.728Z,95880.59
2022-12-12T10:48:25.283Z,95884.28
2022-12-12T10:50:57.089Z,95889.75
2022-12-12T10:53:27.776Z,95878.75
2022-12-12T10:55:59.942Z,95879.88
2022-12-12T10:58:38.406Z,95882.59
2022-12-12T11:01:13.842Z,95881.22
2022-12-12T11:03:46.233Z,95882.44
2022-12-12T11:06:19.467Z,95880.88
2022-12-12T11:08:58.905Z,95880.22
2022-12-12T11:11:29.068Z,95879.00
2022-12-12T11:14:00.837Z,95873.97
2022-12-12T11:16:31.304Z,95882.69
2022-12-12T11:19:06.245Z,95888.97
2022-12-12T11:21:37.739Z,95878.81
2022-12-12T11:24:13.847Z,95879.63
2022-12-12T11:26:46.669Z,95885.94
2022-12-12T11:29:29.429Z,95887.00
2022-12-12T11:32:00.340Z,95884.53
2022-12-12T11:34:30.251Z,95891.41
2022-12-12T11:37:01.129Z,95892.69
2022-12-12T11:39:38.333Z,95895.91
2022-12-12T11:42:20.209Z,95886.09
2022-12-12T11:44:59.153Z,95887.16
2022-12-12T11:47:30.406Z,95886.13
2022-12-12T11:50:04.916Z,95885.03
2022-12-12T11:52:37.645Z,95884.16
2022-12-12T11:55:15.842Z,95886.22
2022-12-12T11:58:03.682Z,95883.19
2022-12-12T12:00:40.998Z,95879.34
2022-12-12T12:03:28.459Z,95881.06
2022-12-12T12:06:14.449Z,95886.06
2022-12-12T12:09:06.984Z,95878.34
2022-12-12T12:11:45.364Z,95871.88
2022-12-12T12:14:28.908Z,95873.56
2022-12-12T12:17:03.974Z,95879.94
2022-12-12T12:19:40.092Z,95876.56
2022-12-12T12:22:23.567Z,95871.88
2022-12-12T12:25:16.275Z,95875.16
2022-12-12T12:27:59.779Z,95868.59
2022-12-12T12:30:35.200Z,95869.09
2022-12-12T12:33:19.302Z,95869.88
2022-12-12T12:35:59.837Z,95868.16
2022-12-12T12:38:51.108Z,95868.31
2022-12-12T12:41:31.246Z,95859.94
2022-12-12T12:44:12.329Z,95867.44
2022-12-12T12:46:47.058Z,95869.84
2022-12-12T12:49:21.267Z,95863.69
2022-12-12T12:51:55.174Z,95867.81
2022-12-12T12:54:26.124Z,95871.03
2022-12-12T12:56:59.896Z,95873.03
2022-12-12T12:59:35.659Z,95876.56
2022-12-12T13:02:12.322Z,95872.81
2022-12-12T13:04:46.939Z,95872.34
2022-12-12T13:07:29.063Z,95870.66
2022-12-12T13:10:03.874Z,95873.69
2022-12-12T13:12:38.495Z,95874.28
2022-12-12T13:15:18.810Z,95876.94
2022-12-12T13:17:55.035Z,95867.41
2022-12-12T13:20:26.310Z,95876.03
2022-12-12T13:23:07.798Z,95886.41
2022-12-12T13:25:42.001Z,95875.28
2022-12-12T13:28:16.015Z,95875.50
2022-12-12T13:31:02.261Z,95884.41
2022-12-12T13:33:41.618Z,95882.41
2022-12-12T13:36:16.333Z,95883.84
2022-12-12T13:38:49.374Z,95881.38
2022-12-12T13:41:19.147Z,95887.94
2022-12-12T13:43:49.250Z,95880.69
2022-12-12T13:46:37.068Z,95885.84
2022-12-12T13:49:31.957Z,95885.44
2022-12-12T13:52:23.984Z,95888.31
2022-12-12T13:54:55.535Z,95883.78
2022-12-12T13:57:33.468Z,95896.13
2022-12-12T14:00:30.118Z,95893.50
2022-12-12T14:03:05.416Z,95888.16
2022-12-12T14:05:37.102Z,95890.22
2022-12-12T14:08:22.407Z,95892.47
2022-12-12T14:10:58.685Z,95893.53
2022-12-12T14:13:35.571Z,95896.38
2022-12-12T14:16:08.141Z,95885.84
2022-12-12T14:18:40.619Z,95892.56
2022-12-12T14:21:11.791Z,95896.81
2022-12-12T14:23:42.676Z,95895.94
2022-12-12T14:26:48.879Z,95894.66
2022-12-12T14:29:28.258Z,95897.66
2022-12-12T14:32:16.195Z,95895.72
2022-12-12T14:34:58.721Z,95899.75
2022-12-12T14:37:40.751Z,95897.03
2022-12-12T14:40:18.143Z,95887.09
2022-12-12T14:43:15.433Z,95876.97
2022-12-12T14:45:53.324Z,95883.47
2022-12-12T14:48:24.667Z,95887.13
2022-12-12T14:51:06.571Z,95887.28
2022-12-12T14:53:48.733Z,95891.75
2022-12-12T14:56:21.387Z,95882.78
2022-12-12T14:58:59.021Z,95897.16
2022-12-12T15:01:32.990Z,95899.50
2022-12-12T15:04:05.130Z,95887.31
2022-12-12T15:06:38.545Z,95887.81
2022-12-12T15:09:17.660Z,95886.13
2022-12-12T15:11:47.387Z,95891.78
2022-12-12T15:14:20.218Z,95896.69
2022-12-12T15:16:53.373Z,95895.03
2022-12-12T15:19:26.876Z,95888.81
2022-12-12T15:21:58.050Z,95897.16
2022-12-12T15:24:29.673Z,95899.31
2022-12-12T15:27:00.194Z,95890.34
2022-12-12T15:29:30.950Z,95890.38
2022-12-12T15:32:03.182Z,95893.03
2022-12-12T15:34:40.686Z,95898.34
2022-12-12T15:37:24.164Z,95894.25
2022-12-12T15:40:26.322Z,95895.41
2022-12-12T15:42:57.067Z,95903.69
2022-12-12T15:45:33.346Z,95907.25
2022-12-12T15:48:02.353Z,95910.63
2022-12-12T15:50:37.458Z,95907.03
2022-12-12T15:53:19.010Z,95889.50
2022-12-12T15:55:56.730Z,95899.84
2022-12-12T15:58:29.868Z,95881.44
2022-12-12T16:01:20.136Z,95889.44
2022-12-12T16:03:59.927Z,95882.28
2022-12-12T16:06:30.895Z,95872.06
2022-12-12T16:09:17.525Z,95873.44
2022-12-12T16:11:47.198Z,95861.59
2022-12-12T16:14:35.339Z,95882.31
2022-12-12T16:17:11.612Z,95878.97
2022-12-12T16:19:46.085Z,95878.31
2022-12-12T16:22:21.711Z,95882.28
2022-12-12T16:24:53.505Z,95888.69
2022-12-12T16:27:22.054Z,95888.53
2022-12-12T16:29:51.304Z,95877.09
2022-12-12T16:32:21.369Z,95890.38
2022-12-12T16:34:50.954Z,95886.47
2022-12-12T16:37:19.978Z,95893.50
2022-12-12T16:39:48.352Z,95897.59
2022-12-12T16:42:21.959Z,95893.63
2022-12-12T16:44:50.687Z,95888.69
2022-12-12T16:47:22.086Z,95889.66
2022-12-12T16:49:51.261Z,95899.13
2022-12-12T16:52:21.761Z,95902.63
2022-12-12T16:54:53.808Z,95903.34
2022-12-12T16:57:42.802Z,95876.41
2022-12-12T17:00:13.450Z,95911.00
2022-12-12T17:02:42.138Z,95916.47
2022-12-12T17:05:16.563Z,95885.44
2022-12-12T17:07:45.142Z,95928.47
2022-12-12T17:10:13.781Z,95927.78
2022-12-12T17:12:43.775Z,95934.56
2022-12-12T17:15:15.264Z,95928.47
2022-12-12T17:17:44.017Z,95926.91
2022-12-12T17:20:13.311Z,95927.78
2022-12-12T17:22:42.067Z,95924.25
2022-12-12T17:25:11.613Z,95934.53
2022-12-12T17:27:40.854Z,95927.06
2022-12-12T17:30:13.669Z,95935.88
2022-12-12T17:32:43.318Z,95930.66
2022-12-12T17:35:11.887Z,95927.88
2022-12-12T17:37:40.937Z,95919.75
2022-12-12T17:40:11.370Z,95937.44
2022-12-12T17:42:40.322Z,95941.25
2022-12-12T17:45:12.976Z,95944.91
2022-12-12T17:47:41.678Z,95946.91
2022-12-12T17:50:12.562Z,95930.03
2022-12-12T17:52:41.361Z,95944.06
2022-12-12T17:55:53.473Z,95939.59
2022-12-12T17:57:59.227Z,95928.00
2022-12-12T18:00:29.390Z,95938.44
2022-12-12T18:02:58.047Z,95946.41
2022-12-12T18:05:26.580Z,95956.00
2022-12-12T18:07:55.677Z,95944.41
2022-12-12T18:10:24.384Z,95951.84
2022-12-12T18:12:53.416Z,95915.94
2022-12-12T18:15:21.936Z,95941.59
2022-12-12T18:17:52.523Z,95939.28
2022-12-12T18:20:21.295Z,95935.50
2022-12-12T18:22:50.363Z,95936.34
2022-12-12T18:25:19.616Z,95942.19
2022-12-12T18:27:48.787Z,95937.53
2022-12-12T18:30:17.531Z,95931.56
2022-12-12T18:32:46.910Z,95937.00
2022-12-12T18:35:16.821Z,95920.00
2022-12-12T18:37:46.172Z,95943.03
2022-12-12T18:40:14.766Z,95938.72
2022-12-12T18:42:43.400Z,95943.69
2022-12-12T18:45:12.286Z,95944.00
2022-12-12T18:47:40.821Z,95930.91
2022-12-12T18:50:10.580Z,95932.75
2022-12-12T18:52:40.299Z,95937.69
2022-12-12T18:55:09.690Z,95935.59
2022-12-12T18:57:38.088Z,95946.47
2022-12-12T19:00:08.494Z,95940.03
2022-12-12T19:02:40.406Z,95949.00
2022-12-12T19:05:13.400Z,95948.00
2022-12-12T19:07:44.109Z,95950.31
2022-12-12T19:10:13.427Z,95947.31
2022-12-12T19:12:41.970Z,95953.97
2022-12-12T19:15:18.914Z,95947.84
2022-12-12T19:17:48.099Z,95944.53
2022-12-12T19:20:17.067Z,95940.88
2022-12-12T19:22:47.190Z,95934.75
2022-12-12T19:25:15.965Z,95941.06
2022-12-12T19:27:45.120Z,95951.31
2022-12-12T19:30:15.679Z,95948.66
2022-12-12T19:32:48.662Z,95947.84
2022-12-12T19:35:17.559Z,95948.50
2022-12-12T19:37:47.388Z,95937.06
2022-12-12T19:40:16.286Z,95950.78
2022-12-12T19:42:45.387Z,95950.94
2022-12-12T19:45:13.843Z,95941.50
2022-12-12T19:47:42.352Z,95945.59
2022-12-12T19:50:11.356Z,95946.09
2022-12-12T19:52:40.233Z,95935.19
2022-12-12T19:55:10.505Z,95942.63
2022-12-12T19:57:40.177Z,95940.66
2022-12-12T20:00:11.203Z,95951.38
2022-12-12T20:02:40.233Z,95938.50
2022-12-12T20:05:09.442Z,95946.13
2022-12-12T20:07:38.056Z,95949.91
2022-12-12T20:10:07.894Z,95946.44
2022-12-12T20:12:41.238Z,95949.59
2022-12-12T20:15:15.237Z,95940.75
2022-12-12T20:17:44.248Z,95947.56
2022-12-12T20:20:13.779Z,95945.41
2022-12-12T20:22:42.401Z,95940.28
2022-12-12T20:25:11.657Z,95940.94
2022-12-12T20:27:41.928Z,95933.66
2022-12-12T20:30:12.359Z,95946.44
2022-12-12T20:32:41.339Z,95950.34
2022-12-12T20:35:10.429Z,95946.84
2022-12-12T20:37:40.038Z,95946.00
2022-12-12T20:40:09.575Z,95943.03
2022-12-12T20:42:38.410Z,95942.56
2022-12-12T20:45:10.450Z,95946.47
2022-12-12T20:47:38.933Z,95936.88
2022-12-12T20:50:08.562Z,95936.09
2022-12-12T20:52:36.978Z,95942.91
2022-12-12T20:55:06.694Z,95932.31
2022-12-12T20:57:35.214Z,95937.41
2022-12-12T21:00:04.847Z,95934.75
2022-12-12T21:02:34.723Z,95942.53
2022-12-12T21:05:06.017Z,95941.72
2022-12-12T21:07:34.418Z,95941.53
2022-12-12T21:10:02.794Z,95922.97
2022-12-12T21:12:31.588Z,95936.53
2022-12-12T21:15:02.986Z,95939.50
2022-12-12T21:17:32.055Z,95940.16
2022-12-12T21:20:06.484Z,95934.59
2022-12-12T21:22:35.754Z,95936.88
2022-12-12T21:25:04.206Z,95940.88
2022-12-12T21:27:33.444Z,95935.06
2022-12-12T21:30:02.459Z,95931.41
2022-12-12T21:32:30.902Z,95934.69
2022-12-12T21:34:59.311Z,95938.31
2022-12-12T21:37:29.801Z,95942.63
2022-12-12T21:39:58.238Z,95940.97
2022-12-12T21:42:26.606Z,95934.19
2022-12-12T21:44:55.416Z,95934.34
2022-12-12T21:47:23.870Z,95929.03
2022-12-12T21:49:52.477Z,95919.94
2022-12-12T21:52:22.094Z,95914.66
2022-12-12T21:54:52.349Z,95916.78
2022-12-12T21:57:24.625Z,95914.94
2022-12-12T21:59:53.475Z,95922.53
2022-12-12T22:02:21.946Z,95924.19
2022-12-12T22:04:50.419Z,95912.41
2022-12-12T22:07:21.206Z,95928.81
2022-12-12T22:09:57.199Z,95920.06
2022-12-12T22:12:39.862Z,95916.25
2022-12-12T22:15:09.390Z,95918.91
2022-12-12T22:17:38.079Z,95918.91
2022-12-12T22:20:07.115Z,95915.94
2022-12-12T22:22:35.611Z,95907.34
2022-12-12T22:25:06.587Z,95908.63
2022-12-12T22:27:35.284Z,95914.06
2022-12-12T22:30:03.697Z,95910.25
2022-12-12T22:32:32.968Z,95917.34
2022-12-12T22:35:01.523Z,95919.03
2022-12-12T22:37:31.307Z,95911.16
2022-12-12T22:39:59.711Z,95916.44
2022-12-12T22:42:30.910Z,95911.69
2022-12-12T22:44:59.285Z,95913.97
2022-12-12T22:47:28.316Z,95917.41
2022-12-12T22:49:57.327Z,95902.66
2022-12-12T22:52:26.335Z,95902.75
2022-12-12T22:54:55.251Z,95906.13
2022-12-12T22:57:23.623Z,95912.44
2022-12-12T22:59:54.475Z,95912.06
2022-12-12T23:02:25.118Z,95909.09
2022-12-12T23:04:54.713Z,95908.56
2022-12-12T23:07:23.389Z,95911.13
2022-12-12T23:09:56.814Z,95900.88
2022-12-12T23:12:25.421Z,95899.09
2022-12-12T23:14:55.587Z,95900.16
2022-12-12T23:17:24.677Z,95894.56
2022-12-12T23:19:53.515Z,95894.41
2022-12-12T23:22:23.190Z,95895.09
2022-12-12T23:24:51.579Z,95887.94
2022-12-12T23:27:20.274Z,95898.88
2022-12-12T23:29:48.632Z,95896.06
2022-12-12T23:32:18.873Z,95892.91
2022-12-12T23:34:50.193Z,95894.28
2022-12-12T23:37:18.530Z,95888.69
2022-12-12T23:39:51.154Z,95893.97
2022-12-12T23:42:19.504Z,95880.94
2022-12-12T23:44:50.920Z,95882.25
2022-12-12T23:47:20.768Z,95882.31
2022-12-12T23:49:49.634Z,95883.00
2022-12-12T23:52:18.036Z,95879.06
2022-12-12T23:54:47.517Z,95881.03
2022-12-12T23:57:16.386Z,95872.81
2022-12-12T23:59:45.198Z,95880.78
